createdAt,value
2023-05-09T00:00:30.928Z,9.83
2023-05-09T00:01:30.954Z,9.87
2023-05-09T00:02:31.046Z,9.86
2023-05-09T00:03:30.971Z,9.90
2023-05-09T00:04:31.034Z,9.89
2023-05-09T00:05:30.996Z,10.01
2023-05-09T00:06:31.003Z,9.97
2023-05-09T00:07:31.013Z,10.01
2023-05-09T00:08:31.030Z,10.05
2023-05-09T00:09:31.032Z,9.96
2023-05-09T00:10:31.048Z,9.96
2023-05-09T00:11:31.063Z,9.94
2023-05-09T00:12:31.100Z,9.99
2023-05-09T00:13:31.086Z,9.89
2023-05-09T00:14:31.096Z,9.78
2023-05-09T00:15:31.238Z,9.66
2023-05-09T00:16:31.182Z,9.54
2023-05-09T00:17:31.162Z,9.53
2023-05-09T00:18:31.260Z,9.50
2023-05-09T00:19:31.156Z,9.51
2023-05-09T00:20:31.171Z,9.47
2023-05-09T00:21:31.174Z,9.35
2023-05-09T00:22:31.190Z,9.31
2023-05-09T00:23:31.217Z,9.29
2023-05-09T00:24:31.220Z,9.26
2023-05-09T00:25:31.221Z,9.21
2023-05-09T00:26:31.238Z,9.17
2023-05-09T00:27:31.249Z,9.20
2023-05-09T00:28:31.261Z,9.17
2023-05-09T00:29:31.272Z,9.13
2023-05-09T00:30:31.283Z,9.05
2023-05-09T00:31:31.425Z,8.98
2023-05-09T00:32:31.338Z,8.99
2023-05-09T00:33:31.330Z,9.04
2023-05-09T00:34:31.341Z,9.10
2023-05-09T00:35:31.337Z,9.14
2023-05-09T00:36:31.352Z,9.15
2023-05-09T00:37:31.501Z,9.15
2023-05-09T00:38:31.384Z,9.26
2023-05-09T00:39:31.389Z,9.24
2023-05-09T00:40:31.397Z,9.24
2023-05-09T00:41:31.411Z,9.17
2023-05-09T00:42:31.432Z,9.15
2023-05-09T00:43:31.428Z,9.28
2023-05-09T00:44:31.444Z,9.23
2023-05-09T00:45:31.464Z,9.24
2023-05-09T00:46:31.568Z,9.24
2023-05-09T00:47:31.620Z,9.26
2023-05-09T00:48:31.494Z,9.21
2023-05-09T00:49:31.511Z,9.29
2023-05-09T00:50:31.524Z,9.39
2023-05-09T00:51:31.535Z,9.32
2023-05-09T00:52:31.537Z,9.29
2023-05-09T00:53:31.549Z,9.36
2023-05-09T00:54:31.568Z,9.42
2023-05-09T00:55:31.570Z,9.40
2023-05-09T00:56:31.584Z,9.31
2023-05-09T00:57:31.593Z,9.43
2023-05-09T00:58:31.606Z,9.33
2023-05-09T00:59:31.620Z,9.36
2023-05-09T01:00:31.626Z,9.31
2023-05-09T01:01:31.671Z,9.35
2023-05-09T01:02:31.764Z,9.29
2023-05-09T01:03:31.936Z,9.36
2023-05-09T01:04:31.679Z,9.28
2023-05-09T01:05:31.699Z,9.23
2023-05-09T01:06:31.700Z,9.28
2023-05-09T01:07:31.706Z,9.33
2023-05-09T01:08:31.726Z,9.31
2023-05-09T01:09:31.732Z,9.33
2023-05-09T01:10:31.746Z,9.42
2023-05-09T01:11:31.752Z,9.38
2023-05-09T01:12:31.765Z,9.47
2023-05-09T01:13:31.781Z,9.38
2023-05-09T01:14:31.801Z,9.46
2023-05-09T01:15:31.798Z,9.53
2023-05-09T01:16:31.812Z,9.47
2023-05-09T01:17:31.853Z,9.48
2023-05-09T01:18:31.837Z,9.54
2023-05-09T01:19:32.017Z,9.54
2023-05-09T01:20:31.862Z,9.56
2023-05-09T01:21:31.870Z,9.51
2023-05-09T01:22:31.910Z,9.43
2023-05-09T01:23:31.889Z,9.42
2023-05-09T01:24:31.910Z,9.43
2023-05-09T01:25:31.921Z,9.38
2023-05-09T01:26:31.937Z,9.43
2023-05-09T01:27:31.936Z,9.40
2023-05-09T01:28:31.953Z,9.33
2023-05-09T01:29:31.959Z,9.46
2023-05-09T01:30:31.979Z,9.46
2023-05-09T01:31:32.014Z,9.43
2023-05-09T01:32:32.053Z,9.47
2023-05-09T01:33:32.004Z,9.53
2023-05-09T01:34:32.023Z,9.39
2023-05-09T01:35:32.192Z,9.21
2023-05-09T01:36:32.042Z,9.13
2023-05-09T01:37:32.058Z,9.11
2023-05-09T01:38:32.071Z,9.05
2023-05-09T01:39:32.080Z,8.99
2023-05-09T01:40:32.089Z,8.98
2023-05-09T01:41:32.110Z,9.01
2023-05-09T01:42:32.113Z,8.96
2023-05-09T01:43:32.153Z,8.94
2023-05-09T01:44:32.133Z,8.96
2023-05-09T01:45:32.144Z,9.02
2023-05-09T01:46:32.175Z,9.01
2023-05-09T01:47:32.194Z,8.96
2023-05-09T01:48:32.178Z,9.02
2023-05-09T01:49:32.198Z,9.02
2023-05-09T01:50:32.205Z,9.10
2023-05-09T01:51:32.323Z,8.96
2023-05-09T01:52:32.226Z,9.05
2023-05-09T01:53:32.234Z,9.01
2023-05-09T01:54:32.252Z,8.94
2023-05-09T01:55:32.285Z,9.01
2023-05-09T01:56:32.293Z,8.95
2023-05-09T01:57:32.278Z,8.99
2023-05-09T01:58:32.293Z,9.08
2023-05-09T01:59:32.306Z,9.08
2023-05-09T02:00:32.362Z,9.05
2023-05-09T02:01:32.327Z,9.08
2023-05-09T02:02:32.424Z,9.10
2023-05-09T02:03:32.419Z,9.08
2023-05-09T02:04:32.362Z,9.10
2023-05-09T02:05:32.423Z,9.10
2023-05-09T02:06:32.388Z,9.11
2023-05-09T02:07:32.526Z,9.11
2023-05-09T02:08:32.407Z,9.11
2023-05-09T02:09:32.419Z,9.13
2023-05-09T02:10:32.428Z,9.14
2023-05-09T02:11:32.438Z,9.11
2023-05-09T02:12:32.463Z,9.05
2023-05-09T02:13:32.459Z,9.13
2023-05-09T02:14:32.481Z,8.99
2023-05-09T02:15:32.487Z,9.04
2023-05-09T02:16:32.521Z,9.04
2023-05-09T02:17:32.519Z,9.08
2023-05-09T02:18:32.544Z,9.04
2023-05-09T02:19:32.526Z,9.04
2023-05-09T02:20:32.546Z,9.05
2023-05-09T02:21:32.550Z,9.11
2023-05-09T02:22:32.562Z,9.15
2023-05-09T02:23:32.694Z,9.04
2023-05-09T02:24:32.588Z,9.10
2023-05-09T02:25:32.592Z,9.11
2023-05-09T02:26:32.624Z,8.99
2023-05-09T02:27:32.621Z,9.01
2023-05-09T02:28:32.628Z,9.04
2023-05-09T02:29:32.645Z,8.96
2023-05-09T02:30:32.655Z,8.94
2023-05-09T02:31:32.679Z,9.01
2023-05-09T02:32:32.690Z,8.95
2023-05-09T02:33:32.685Z,8.96
2023-05-09T02:34:32.699Z,8.96
2023-05-09T02:35:32.724Z,8.94
2023-05-09T02:36:32.724Z,8.79
2023-05-09T02:37:32.730Z,8.79
2023-05-09T02:38:32.742Z,8.81
2023-05-09T02:39:32.870Z,8.81
2023-05-09T02:40:32.763Z,8.77
2023-05-09T02:41:32.780Z,8.77
2023-05-09T02:42:32.789Z,8.79
2023-05-09T02:43:32.803Z,8.79
2023-05-09T02:44:32.812Z,8.80
2023-05-09T02:45:32.829Z,8.81
2023-05-09T02:46:32.927Z,8.86
2023-05-09T02:47:32.866Z,8.83
2023-05-09T02:48:32.863Z,8.84
2023-05-09T02:49:32.955Z,8.94
2023-05-09T02:50:32.886Z,8.87
2023-05-09T02:51:32.885Z,8.89
2023-05-09T02:52:32.903Z,8.96
2023-05-09T02:53:32.913Z,8.89
2023-05-09T02:54:32.924Z,8.96
2023-05-09T02:55:33.060Z,8.86
2023-05-09T02:56:32.945Z,8.86
2023-05-09T02:57:32.951Z,8.81
2023-05-09T02:58:32.967Z,8.86
2023-05-09T02:59:32.973Z,8.86
2023-05-09T03:00:32.987Z,8.83
2023-05-09T03:01:33.024Z,8.79
2023-05-09T03:02:33.086Z,8.84
2023-05-09T03:03:33.092Z,8.86
2023-05-09T03:04:33.040Z,8.76
2023-05-09T03:05:33.042Z,8.71
2023-05-09T03:06:33.055Z,8.79
2023-05-09T03:07:33.063Z,8.76
2023-05-09T03:08:33.081Z,8.76
2023-05-09T03:09:33.087Z,8.76
2023-05-09T03:10:33.097Z,8.73
2023-05-09T03:11:33.226Z,8.80
2023-05-09T03:12:33.120Z,8.76
2023-05-09T03:13:33.129Z,8.80
2023-05-09T03:14:33.141Z,8.79
2023-05-09T03:15:33.165Z,8.76
2023-05-09T03:16:33.189Z,8.70
2023-05-09T03:17:33.194Z,8.74
2023-05-09T03:18:33.228Z,8.71
2023-05-09T03:19:33.196Z,8.66
2023-05-09T03:20:33.207Z,8.62
2023-05-09T03:21:33.220Z,8.65
2023-05-09T03:22:33.261Z,8.58
2023-05-09T03:23:33.245Z,8.63
2023-05-09T03:24:33.257Z,8.63
2023-05-09T03:25:33.269Z,8.61
2023-05-09T03:26:33.273Z,8.59
2023-05-09T03:27:33.393Z,8.61
2023-05-09T03:28:33.295Z,8.58
2023-05-09T03:29:33.304Z,8.58
2023-05-09T03:30:33.320Z,8.65
2023-05-09T03:31:33.353Z,8.63
2023-05-09T03:32:33.380Z,8.65
2023-05-09T03:33:33.353Z,8.66
2023-05-09T03:34:33.357Z,8.74
2023-05-09T03:35:33.382Z,8.74
2023-05-09T03:36:33.389Z,8.74
2023-05-09T03:37:33.390Z,8.74
2023-05-09T03:38:33.406Z,8.73
2023-05-09T03:39:33.410Z,8.77
2023-05-09T03:40:33.425Z,8.68
2023-05-09T03:41:33.434Z,8.68
2023-05-09T03:42:33.446Z,8.79
2023-05-09T03:43:33.574Z,8.76
2023-05-09T03:44:33.467Z,8.76
2023-05-09T03:45:33.476Z,8.83
2023-05-09T03:46:33.535Z,8.70
2023-05-09T03:47:33.572Z,8.77
2023-05-09T03:48:33.510Z,8.76
2023-05-09T03:49:33.522Z,8.77
2023-05-09T03:50:33.534Z,8.79
2023-05-09T03:51:33.543Z,8.79
2023-05-09T03:52:33.556Z,8.74
2023-05-09T03:53:33.570Z,8.74
2023-05-09T03:54:33.579Z,8.71
2023-05-09T03:55:33.597Z,8.70
2023-05-09T03:56:33.600Z,8.71
2023-05-09T03:57:33.610Z,8.74
2023-05-09T03:58:33.636Z,8.68
2023-05-09T03:59:33.753Z,8.71
2023-05-09T04:00:33.649Z,8.74
2023-05-09T04:01:33.699Z,8.73
2023-05-09T04:02:33.725Z,8.71
2023-05-09T04:03:33.862Z,8.66
2023-05-09T04:04:33.684Z,8.68
2023-05-09T04:05:33.693Z,8.65
2023-05-09T04:06:33.721Z,8.65
2023-05-09T04:07:33.721Z,8.68
2023-05-09T04:08:33.734Z,8.59
2023-05-09T04:09:33.742Z,8.55
2023-05-09T04:10:33.746Z,8.61
2023-05-09T04:11:33.764Z,8.63
2023-05-09T04:12:33.773Z,8.65
2023-05-09T04:13:33.782Z,8.55
2023-05-09T04:14:33.790Z,8.53
2023-05-09T04:15:33.923Z,8.62
2023-05-09T04:16:33.829Z,8.53
2023-05-09T04:17:33.889Z,8.56
2023-05-09T04:18:33.831Z,8.55
2023-05-09T04:19:33.848Z,8.58
2023-05-09T04:20:33.855Z,8.53
2023-05-09T04:21:33.877Z,8.53
2023-05-09T04:22:33.884Z,8.48
2023-05-09T04:23:33.893Z,8.48
2023-05-09T04:24:33.908Z,8.53
2023-05-09T04:25:33.913Z,8.53
2023-05-09T04:26:33.920Z,8.45
2023-05-09T04:27:33.935Z,8.48
2023-05-09T04:28:33.937Z,8.55
2023-05-09T04:29:33.954Z,8.52
2023-05-09T04:30:33.971Z,8.55
2023-05-09T04:31:34.179Z,8.52
2023-05-09T04:32:34.001Z,8.53
2023-05-09T04:33:33.998Z,8.61
2023-05-09T04:34:34.001Z,8.56
2023-05-09T04:35:34.027Z,8.65
2023-05-09T04:36:34.097Z,8.55
2023-05-09T04:37:34.042Z,8.56
2023-05-09T04:38:34.046Z,8.59
2023-05-09T04:39:34.066Z,8.56
2023-05-09T04:40:34.081Z,8.62
2023-05-09T04:41:34.084Z,8.61
2023-05-09T04:42:34.101Z,8.66
2023-05-09T04:43:34.103Z,8.62
2023-05-09T04:44:34.103Z,8.71
2023-05-09T04:45:34.122Z,8.73
2023-05-09T04:46:34.245Z,8.71
2023-05-09T04:47:34.277Z,8.76
2023-05-09T04:48:34.160Z,8.68
2023-05-09T04:49:34.177Z,8.76
2023-05-09T04:50:34.172Z,8.70
2023-05-09T04:51:34.187Z,8.73
2023-05-09T04:52:34.198Z,8.79
2023-05-09T04:53:34.210Z,8.74
2023-05-09T04:54:34.214Z,8.80
2023-05-09T04:55:34.233Z,8.87
2023-05-09T04:56:34.235Z,8.83
2023-05-09T04:57:34.255Z,8.95
2023-05-09T04:58:34.257Z,8.81
2023-05-09T04:59:34.270Z,8.83
2023-05-09T05:00:34.277Z,8.83
2023-05-09T05:01:34.337Z,8.81
2023-05-09T05:02:34.377Z,8.84
2023-05-09T05:03:34.429Z,8.91
2023-05-09T05:04:34.351Z,8.92
2023-05-09T05:05:36.764Z,8.89
2023-05-09T05:06:34.344Z,8.95
2023-05-09T05:07:34.357Z,8.99
2023-05-09T05:08:34.365Z,9.02
2023-05-09T05:09:34.379Z,8.96
2023-05-09T05:10:34.393Z,8.96
2023-05-09T05:11:34.415Z,8.98
2023-05-09T05:12:34.423Z,9.02
2023-05-09T05:13:34.419Z,9.04
2023-05-09T05:14:34.428Z,9.13
2023-05-09T05:15:34.450Z,9.05
2023-05-09T05:16:34.570Z,9.02
2023-05-09T05:17:34.482Z,8.95
2023-05-09T05:18:34.471Z,8.81
2023-05-09T05:19:34.604Z,8.77
2023-05-09T05:20:34.505Z,8.80
2023-05-09T05:21:34.506Z,8.76
2023-05-09T05:22:34.516Z,8.76
2023-05-09T05:23:34.533Z,8.74
2023-05-09T05:24:34.536Z,8.92
2023-05-09T05:25:34.559Z,8.81
2023-05-09T05:26:34.561Z,8.96
2023-05-09T05:27:34.573Z,8.98
2023-05-09T05:28:34.580Z,9.08
2023-05-09T05:29:34.595Z,9.01
2023-05-09T05:30:34.712Z,9.04
2023-05-09T05:31:34.648Z,9.15
2023-05-09T05:32:34.669Z,9.13
2023-05-09T05:33:34.640Z,9.20
2023-05-09T05:34:34.646Z,9.24
2023-05-09T05:35:34.789Z,9.17
2023-05-09T05:36:34.664Z,9.15
2023-05-09T05:37:34.687Z,9.15
2023-05-09T05:38:34.688Z,9.11
2023-05-09T05:39:34.707Z,9.14
2023-05-09T05:40:34.707Z,9.17
2023-05-09T05:41:34.724Z,9.21
2023-05-09T05:42:34.738Z,9.26
2023-05-09T05:43:34.742Z,9.28
2023-05-09T05:44:34.760Z,9.32
2023-05-09T05:45:34.811Z,9.39
2023-05-09T05:46:34.773Z,9.36
2023-05-09T05:47:34.811Z,9.46
2023-05-09T05:48:34.794Z,9.47
2023-05-09T05:49:34.820Z,9.47
2023-05-09T05:50:34.820Z,9.54
2023-05-09T05:51:34.975Z,9.56
2023-05-09T05:52:34.840Z,9.54
2023-05-09T05:53:34.856Z,9.51
2023-05-09T05:54:34.857Z,9.54
2023-05-09T05:55:34.881Z,9.56
2023-05-09T05:56:34.878Z,9.61
2023-05-09T05:57:34.898Z,9.51
2023-05-09T05:58:34.903Z,9.56
2023-05-09T05:59:34.922Z,9.47
2023-05-09T06:00:34.932Z,9.40
2023-05-09T06:01:34.945Z,9.38
2023-05-09T06:02:35.042Z,9.20
2023-05-09T06:03:35.041Z,9.17
2023-05-09T06:04:34.971Z,9.14
2023-05-09T06:05:34.989Z,9.08
2023-05-09T06:06:35.007Z,9.14
2023-05-09T06:07:35.150Z,9.11
2023-05-09T06:08:35.028Z,9.02
2023-05-09T06:09:35.031Z,8.94
2023-05-09T06:10:35.037Z,8.96
2023-05-09T06:11:35.050Z,9.02
2023-05-09T06:12:35.058Z,9.13
2023-05-09T06:13:35.082Z,9.21
2023-05-09T06:14:35.085Z,9.14
2023-05-09T06:15:35.104Z,9.24
2023-05-09T06:16:35.113Z,9.35
2023-05-09T06:17:35.129Z,9.39
2023-05-09T06:18:35.127Z,9.48
2023-05-09T06:19:35.141Z,9.54
2023-05-09T06:20:35.165Z,9.65
2023-05-09T06:21:35.170Z,9.75
2023-05-09T06:22:35.193Z,9.74
2023-05-09T06:23:35.297Z,9.74
2023-05-09T06:24:36.487Z,9.65
2023-05-09T06:25:35.203Z,9.48
2023-05-09T06:26:35.215Z,9.53
2023-05-09T06:27:35.226Z,9.40
2023-05-09T06:28:35.233Z,9.29
2023-05-09T06:29:35.250Z,9.26
2023-05-09T06:30:35.277Z,9.23
2023-05-09T06:31:35.319Z,9.31
2023-05-09T06:32:35.337Z,9.35
2023-05-09T06:33:35.295Z,9.39
2023-05-09T06:34:35.307Z,9.38
2023-05-09T06:35:35.320Z,9.43
2023-05-09T06:36:35.335Z,9.50
2023-05-09T06:37:35.335Z,9.40
2023-05-09T06:38:35.349Z,9.47
2023-05-09T06:39:35.480Z,9.33
2023-05-09T06:40:35.371Z,9.54
2023-05-09T06:41:35.381Z,9.61
2023-05-09T06:42:35.393Z,9.65
2023-05-09T06:43:35.414Z,9.61
2023-05-09T06:44:35.409Z,9.56
2023-05-09T06:45:35.511Z,9.56
2023-05-09T06:46:35.495Z,9.36
2023-05-09T06:47:35.464Z,9.48
2023-05-09T06:48:35.476Z,9.68
2023-05-09T06:49:35.472Z,9.60
2023-05-09T06:50:35.477Z,9.75
2023-05-09T06:51:35.503Z,9.86
2023-05-09T06:52:35.509Z,9.78
2023-05-09T06:53:35.524Z,9.83
2023-05-09T06:54:35.558Z,9.90
2023-05-09T06:55:35.655Z,9.89
2023-05-09T06:56:35.582Z,9.89
2023-05-09T06:57:35.564Z,9.86
2023-05-09T06:58:35.568Z,9.99
2023-05-09T06:59:35.583Z,10.05
2023-05-09T07:00:35.589Z,10.04
2023-05-09T07:01:35.625Z,9.97
2023-05-09T07:02:35.654Z,9.96
2023-05-09T07:03:35.630Z,10.08
2023-05-09T07:04:35.670Z,10.14
2023-05-09T07:05:35.667Z,10.23
2023-05-09T07:06:35.660Z,10.15
2023-05-09T07:07:35.671Z,10.17
2023-05-09T07:08:35.680Z,10.27
2023-05-09T07:09:35.706Z,10.34
2023-05-09T07:10:35.730Z,10.32
2023-05-09T07:11:35.857Z,10.63
2023-05-09T07:12:35.728Z,10.55
2023-05-09T07:13:35.741Z,10.56
2023-05-09T07:14:35.745Z,10.63
2023-05-09T07:15:42.063Z,10.81
2023-05-09T07:16:37.443Z,10.63
2023-05-09T07:17:35.815Z,10.52
2023-05-09T07:18:35.802Z,10.55
2023-05-09T07:19:35.814Z,10.60
2023-05-09T07:20:35.819Z,10.61
2023-05-09T07:21:35.837Z,10.67
2023-05-09T07:22:37.442Z,10.79
2023-05-09T07:23:35.862Z,10.82
2023-05-09T07:24:35.861Z,10.84
2023-05-09T07:25:35.876Z,10.73
2023-05-09T07:26:35.910Z,10.91
2023-05-09T07:27:36.015Z,10.96
2023-05-09T07:28:35.915Z,11.02
2023-05-09T07:29:35.933Z,11.03
2023-05-09T07:30:35.944Z,10.91
2023-05-09T07:31:37.432Z,10.91
2023-05-09T07:32:36.000Z,10.86
2023-05-09T07:33:35.976Z,10.89
2023-05-09T07:34:36.002Z,10.96
2023-05-09T07:35:35.995Z,10.84
2023-05-09T07:36:36.005Z,10.74
2023-05-09T07:37:36.028Z,10.74
2023-05-09T07:38:36.020Z,10.70
2023-05-09T07:39:36.040Z,10.73
2023-05-09T07:40:36.041Z,10.71
2023-05-09T07:41:36.060Z,10.96
2023-05-09T07:42:36.074Z,11.06
2023-05-09T07:43:36.303Z,11.35
2023-05-09T07:44:36.094Z,11.27
2023-05-09T07:45:36.153Z,11.37
2023-05-09T07:46:36.110Z,11.33
2023-05-09T07:47:36.174Z,11.15
2023-05-09T07:48:36.134Z,11.40
2023-05-09T07:49:36.162Z,11.09
2023-05-09T07:50:36.158Z,10.99
2023-05-09T07:51:36.181Z,10.99
2023-05-09T07:52:36.187Z,11.02
2023-05-09T07:53:36.194Z,11.07
2023-05-09T07:54:36.205Z,11.00
2023-05-09T07:55:36.272Z,10.84
2023-05-09T07:56:36.227Z,10.89
2023-05-09T07:57:36.265Z,11.06
2023-05-09T07:58:36.267Z,11.00
2023-05-09T07:59:36.385Z,11.39
2023-05-09T08:00:36.270Z,11.51
2023-05-09T08:01:36.287Z,11.37
2023-05-09T08:02:36.445Z,11.15
2023-05-09T08:03:36.381Z,11.35
2023-05-09T08:04:36.425Z,11.43
2023-05-09T08:05:36.377Z,11.54
2023-05-09T08:06:36.347Z,11.65
2023-05-09T08:07:36.368Z,11.65
2023-05-09T08:08:38.366Z,11.54
2023-05-09T08:09:36.384Z,11.47
2023-05-09T08:10:36.397Z,11.49
2023-05-09T08:11:36.415Z,11.60
2023-05-09T08:12:36.450Z,11.70
2023-05-09T08:13:36.430Z,11.73
2023-05-09T08:14:36.449Z,11.65
2023-05-09T08:15:36.595Z,11.61
2023-05-09T08:16:36.518Z,11.44
2023-05-09T08:17:36.512Z,11.47
2023-05-09T08:18:36.490Z,11.44
2023-05-09T08:19:36.499Z,11.47
2023-05-09T08:20:36.526Z,11.19
2023-05-09T08:21:36.532Z,11.32
2023-05-09T08:22:36.544Z,11.32
2023-05-09T08:23:36.554Z,11.19
2023-05-09T08:24:36.568Z,11.28
2023-05-09T08:25:36.576Z,11.14
2023-05-09T08:26:36.592Z,11.14
2023-05-09T08:27:36.610Z,11.39
2023-05-09T08:28:36.615Z,11.46
2023-05-09T08:29:36.623Z,11.49
2023-05-09T08:30:36.644Z,11.85
2023-05-09T08:31:36.783Z,11.75
2023-05-09T08:32:36.697Z,11.47
2023-05-09T08:33:36.668Z,11.32
2023-05-09T08:34:36.695Z,11.10
2023-05-09T08:35:36.699Z,11.55
2023-05-09T08:36:36.714Z,11.54
2023-05-09T08:37:36.722Z,11.39
2023-05-09T08:38:36.734Z,11.36
2023-05-09T08:39:36.745Z,11.33
2023-05-09T08:40:36.766Z,11.18
2023-05-09T08:41:36.790Z,11.39
2023-05-09T08:42:36.780Z,11.40
2023-05-09T08:43:36.787Z,11.44
2023-05-09T08:44:36.806Z,11.58
2023-05-09T08:45:36.820Z,11.58
2023-05-09T08:46:36.929Z,11.65
2023-05-09T08:47:37.005Z,11.43
2023-05-09T08:48:36.848Z,11.36
2023-05-09T08:49:36.860Z,11.55
2023-05-09T08:50:36.870Z,11.94
2023-05-09T08:51:36.882Z,12.01
2023-05-09T08:52:36.901Z,12.23
2023-05-09T08:53:36.905Z,12.12
2023-05-09T08:54:36.929Z,12.27
2023-05-09T08:55:36.929Z,12.19
2023-05-09T08:56:36.949Z,12.35
2023-05-09T08:57:36.966Z,11.94
2023-05-09T08:58:36.959Z,12.02
2023-05-09T08:59:36.977Z,12.34
2023-05-09T09:00:36.983Z,12.50
2023-05-09T09:01:37.050Z,12.56
2023-05-09T09:02:37.087Z,12.92
2023-05-09T09:03:37.150Z,13.03
2023-05-09T09:04:37.087Z,12.89
2023-05-09T09:05:41.768Z,13.08
2023-05-09T09:06:37.056Z,13.26
2023-05-09T09:07:37.064Z,13.15
2023-05-09T09:08:37.105Z,13.32
2023-05-09T09:09:37.099Z,13.12
2023-05-09T09:10:37.106Z,12.54
2023-05-09T09:11:37.114Z,12.79
2023-05-09T09:12:37.128Z,12.83
2023-05-09T09:13:37.142Z,13.04
2023-05-09T09:14:37.167Z,12.93
2023-05-09T09:15:37.235Z,13.08
2023-05-09T09:16:37.218Z,13.28
2023-05-09T09:17:37.208Z,13.39
2023-05-09T09:18:38.737Z,13.36
2023-05-09T09:19:37.340Z,13.30
2023-05-09T09:20:37.229Z,13.32
2023-05-09T09:21:37.238Z,13.23
2023-05-09T09:22:37.250Z,13.15
2023-05-09T09:23:37.259Z,13.10
2023-05-09T09:24:37.280Z,12.60
2023-05-09T09:25:37.295Z,12.64
2023-05-09T09:26:37.303Z,12.92
2023-05-09T09:27:37.308Z,13.26
2023-05-09T09:28:37.330Z,13.45
2023-05-09T09:29:37.338Z,13.57
2023-05-09T09:30:37.353Z,13.29
2023-05-09T09:31:37.389Z,12.77
2023-05-09T09:32:37.407Z,13.08
2023-05-09T09:33:37.383Z,13.67
2023-05-09T09:34:37.420Z,13.66
2023-05-09T09:35:37.701Z,13.29
2023-05-09T09:36:37.434Z,13.20
2023-05-09T09:37:37.450Z,13.45
2023-05-09T09:38:37.453Z,13.66
2023-05-09T09:39:37.463Z,14.02
2023-05-09T09:40:37.479Z,14.09
2023-05-09T09:41:37.487Z,14.12
2023-05-09T09:42:37.506Z,14.57
2023-05-09T09:43:37.574Z,14.43
2023-05-09T09:44:37.556Z,14.35
2023-05-09T09:45:37.559Z,14.25
2023-05-09T09:46:37.690Z,14.18
2023-05-09T09:47:37.578Z,13.84
2023-05-09T09:48:37.585Z,13.57
2023-05-09T09:49:37.595Z,13.39
2023-05-09T09:50:37.615Z,13.26
2023-05-09T09:51:37.737Z,13.07
2023-05-09T09:52:37.642Z,13.30
2023-05-09T09:53:37.655Z,13.49
2023-05-09T09:54:37.669Z,13.75
2023-05-09T09:55:37.695Z,13.88
2023-05-09T09:56:37.690Z,13.69
2023-05-09T09:57:37.717Z,13.60
2023-05-09T09:58:37.713Z,13.36
2023-05-09T09:59:37.731Z,13.49
2023-05-09T10:00:37.749Z,13.41
2023-05-09T10:01:37.771Z,13.33
2023-05-09T10:02:37.843Z,13.29
2023-05-09T10:03:37.882Z,13.42
2023-05-09T10:04:37.812Z,13.57
2023-05-09T10:05:37.806Z,13.64
2023-05-09T10:06:37.820Z,13.63
2023-05-09T10:07:37.951Z,13.77
2023-05-09T10:08:37.858Z,13.25
2023-05-09T10:09:37.969Z,13.63
2023-05-09T10:10:37.876Z,13.75
2023-05-09T10:11:37.883Z,14.10
2023-05-09T10:12:37.901Z,13.84
2023-05-09T10:13:37.923Z,13.73
2023-05-09T10:14:37.958Z,13.88
2023-05-09T10:15:49.212Z,14.02
2023-05-09T10:16:43.547Z,13.91
2023-05-09T10:17:38.221Z,13.99
2023-05-09T10:18:38.088Z,14.03
2023-05-09T10:19:38.001Z,13.89
2023-05-09T10:20:38.013Z,14.06
2023-05-09T10:21:38.128Z,14.33
2023-05-09T10:22:38.037Z,14.27
2023-05-09T10:23:38.169Z,14.35
2023-05-09T10:24:38.067Z,14.68
2023-05-09T10:25:38.079Z,14.40
2023-05-09T10:26:38.124Z,14.57
2023-05-09T10:27:38.107Z,14.72
2023-05-09T10:28:38.119Z,14.10
2023-05-09T10:29:38.127Z,14.25
2023-05-09T10:30:38.143Z,14.02
2023-05-09T10:31:38.199Z,13.45
2023-05-09T10:32:38.219Z,13.81
2023-05-09T10:33:38.179Z,14.09
2023-05-09T10:34:38.218Z,14.45
2023-05-09T10:35:38.211Z,14.62
2023-05-09T10:36:38.226Z,14.43
2023-05-09T10:37:38.235Z,14.43
2023-05-09T10:38:38.253Z,14.68
2023-05-09T10:39:38.379Z,14.80
2023-05-09T10:40:38.281Z,14.80
2023-05-09T10:41:38.291Z,14.94
2023-05-09T10:42:38.307Z,15.11
2023-05-09T10:43:38.319Z,14.91
2023-05-09T10:44:38.343Z,14.89
2023-05-09T10:45:38.353Z,14.61
2023-05-09T10:46:38.384Z,14.75
2023-05-09T10:47:38.435Z,14.83
2023-05-09T10:48:38.396Z,14.94
2023-05-09T10:49:38.403Z,14.92
2023-05-09T10:50:38.427Z,14.86
2023-05-09T10:51:38.446Z,14.61
2023-05-09T10:52:38.448Z,14.07
2023-05-09T10:53:38.460Z,14.00
2023-05-09T10:54:38.490Z,14.25
2023-05-09T10:55:38.610Z,14.39
2023-05-09T10:56:38.505Z,14.37
2023-05-09T10:57:38.518Z,14.35
2023-05-09T10:58:38.592Z,14.46
2023-05-09T10:59:38.574Z,14.57
2023-05-09T11:00:38.597Z,14.35
2023-05-09T11:01:38.623Z,14.47
2023-05-09T11:02:38.688Z,14.33
2023-05-09T11:03:38.730Z,14.52
2023-05-09T11:04:38.622Z,14.69
2023-05-09T11:05:38.635Z,14.73
2023-05-09T11:06:38.650Z,15.01
2023-05-09T11:07:38.669Z,15.20
2023-05-09T11:08:38.681Z,15.20
2023-05-09T11:09:38.698Z,15.03
2023-05-09T11:10:38.711Z,14.95
2023-05-09T11:11:38.857Z,14.95
2023-05-09T11:12:38.743Z,14.84
2023-05-09T11:13:38.758Z,14.83
2023-05-09T11:14:38.775Z,14.73
2023-05-09T11:15:38.788Z,14.69
2023-05-09T11:16:38.840Z,14.43
2023-05-09T11:17:38.876Z,14.22
2023-05-09T11:18:38.836Z,14.28
2023-05-09T11:19:38.841Z,14.36
2023-05-09T11:20:38.864Z,14.35
2023-05-09T11:21:38.872Z,14.17
2023-05-09T11:22:38.905Z,14.09
2023-05-09T11:23:38.910Z,14.18
2023-05-09T11:24:38.918Z,14.32
2023-05-09T11:25:38.927Z,14.09
2023-05-09T11:26:38.963Z,13.78
2023-05-09T11:27:39.096Z,13.91
2023-05-09T11:28:38.988Z,13.87
2023-05-09T11:29:38.989Z,14.17
2023-05-09T11:30:39.029Z,14.18
2023-05-09T11:31:39.053Z,13.85
2023-05-09T11:32:39.083Z,13.85
2023-05-09T11:33:39.045Z,13.82
2023-05-09T11:34:39.062Z,14.24
2023-05-09T11:35:39.087Z,14.09
2023-05-09T11:36:39.100Z,14.04
2023-05-09T11:37:39.107Z,13.78
2023-05-09T11:38:39.120Z,13.71
2023-05-09T11:39:39.134Z,13.87
2023-05-09T11:40:39.150Z,13.99
2023-05-09T11:41:39.160Z,14.29
2023-05-09T11:42:39.181Z,14.18
2023-05-09T11:43:39.314Z,14.27
2023-05-09T11:44:39.209Z,14.42
2023-05-09T11:45:39.243Z,14.58
2023-05-09T11:46:39.235Z,14.57
2023-05-09T11:47:39.281Z,14.57
2023-05-09T11:48:39.266Z,14.65
2023-05-09T11:49:39.276Z,14.28
2023-05-09T11:50:39.330Z,14.04
2023-05-09T11:51:39.308Z,14.36
2023-05-09T11:52:39.328Z,14.55
2023-05-09T11:53:39.351Z,14.47
2023-05-09T11:54:39.362Z,14.32
2023-05-09T11:55:39.368Z,14.10
2023-05-09T11:56:39.386Z,13.79
2023-05-09T11:57:39.411Z,14.00
2023-05-09T11:58:39.409Z,14.12
2023-05-09T11:59:39.553Z,14.28
2023-05-09T12:00:39.444Z,14.51
2023-05-09T12:01:39.448Z,14.58
2023-05-09T12:02:39.549Z,14.43
2023-05-09T12:03:39.588Z,14.37
2023-05-09T12:04:39.645Z,14.14
2023-05-09T12:05:39.542Z,14.12
2023-05-09T12:06:39.525Z,14.27
2023-05-09T12:07:39.554Z,14.45
2023-05-09T12:08:39.549Z,14.62
2023-05-09T12:09:39.566Z,14.57
2023-05-09T12:10:39.585Z,14.45
2023-05-09T12:11:39.597Z,14.50
2023-05-09T12:12:39.616Z,14.55
2023-05-09T12:13:39.628Z,14.61
2023-05-09T12:14:39.660Z,14.50
2023-05-09T12:15:39.847Z,14.51
2023-05-09T12:16:39.690Z,14.57
2023-05-09T12:17:39.715Z,14.81
2023-05-09T12:18:39.697Z,14.51
2023-05-09T12:19:39.715Z,14.70
2023-05-09T12:20:39.724Z,14.55
2023-05-09T12:21:39.736Z,14.33
2023-05-09T12:22:39.757Z,14.50
2023-05-09T12:23:39.769Z,14.60
2023-05-09T12:24:39.796Z,14.68
2023-05-09T12:25:39.794Z,14.55
2023-05-09T12:26:39.812Z,14.55
2023-05-09T12:27:39.841Z,14.70
2023-05-09T12:28:39.863Z,14.73
2023-05-09T12:29:39.857Z,14.84
2023-05-09T12:30:39.866Z,14.60
2023-05-09T12:31:40.070Z,14.58
2023-05-09T12:32:39.935Z,14.65
2023-05-09T12:33:39.937Z,14.64
2023-05-09T12:34:39.930Z,14.60
2023-05-09T12:35:39.960Z,14.46
2023-05-09T12:36:39.963Z,14.70
2023-05-09T12:37:39.982Z,14.73
2023-05-09T12:38:40.018Z,14.75
2023-05-09T12:39:40.017Z,14.73
2023-05-09T12:40:40.028Z,14.46
2023-05-09T12:42:40.086Z,14.33
2023-05-09T12:43:40.068Z,14.21
2023-05-09T12:44:40.080Z,14.22
2023-05-09T12:45:40.105Z,14.00
2023-05-09T12:46:40.138Z,13.89
2023-05-09T12:47:40.289Z,13.63
2023-05-09T12:48:40.194Z,13.64
2023-05-09T12:49:40.162Z,13.66
2023-05-09T12:50:40.176Z,13.71
2023-05-09T12:51:40.190Z,14.00
2023-05-09T12:52:50.600Z,13.78
2023-05-09T12:53:40.216Z,13.59
2023-05-09T12:54:40.230Z,13.42
2023-05-09T12:55:40.242Z,13.66
2023-05-09T12:56:40.254Z,13.67
2023-05-09T12:57:40.271Z,13.73
2023-05-09T12:58:40.277Z,14.00
2023-05-09T12:59:40.297Z,13.82
2023-05-09T13:00:40.346Z,13.89
2023-05-09T13:01:40.339Z,13.79
2023-05-09T13:02:40.385Z,13.75
2023-05-09T13:03:40.472Z,13.85
2023-05-09T13:04:40.382Z,13.87
2023-05-09T13:05:40.383Z,13.73
2023-05-09T13:06:40.394Z,13.60
2023-05-09T13:07:40.412Z,13.33